Aviation Digital Data Service (ADDS)

Output produced by METARs form (1413 UTC 10 August 2022)
found at http://www.aviationweather.gov/metar/data/
 
METAR text: OIAA 101400Z 32016KT 8000 NSC 49/M00 Q0992
Conditions at: OIAA (ABADAN INTL AIRP, IR) observed 1400 UTC 10 August 2022
Temperature: 49.0°C (120°F)
Dewpoint: 0.0°C (32°F) [RH =  5%]
Pressure (altimeter): 29.29 inches Hg (992.0 mb)
Winds: from the NW (320 degrees) at 18 MPH (16 knots; 8.2 m/s)
Visibility: 5 miles ( 8 km)
Ceiling: at least 12,000 feet AGL
Clouds: sky clear below 12,000 feet AGL
Weather: no significant weather observed at this time

METAR text: OIAA 101352Z 32016KT 8000 NSC 49/M00 Q0992 NOSIG
Conditions at: OIAA (ABADAN INTL AIRP, IR) observed 1352 UTC 10 August 2022
Temperature: 49.0°C (120°F)
Dewpoint: 0.0°C (32°F) [RH =  5%]
Pressure (altimeter): 29.29 inches Hg (992.0 mb)
Winds: from the NW (320 degrees) at 18 MPH (16 knots; 8.2 m/s)
Visibility: 5 miles ( 8 km)
Ceiling: at least 12,000 feet AGL
Clouds: sky clear below 12,000 feet AGL
Weather: no significant weather observed at this time

METAR text: OIAA 101300Z 32019KT 8000 NSC 50/00 Q0992
Conditions at: OIAA (ABADAN INTL AIRP, IR) observed 1300 UTC 10 August 2022
Temperature: 50.0°C (122°F)
Dewpoint: 0.0°C (32°F) [RH =  5%]
Pressure (altimeter): 29.29 inches Hg (992.0 mb)
Winds: from the NW (320 degrees) at 22 MPH (19 knots; 9.8 m/s)
Visibility: 5 miles ( 8 km)
Ceiling: at least 12,000 feet AGL
Clouds: sky clear below 12,000 feet AGL
Weather: no significant weather observed at this time

METAR text: OIAA 101251Z 32019KT 8000 NSC 50/00 Q0992 NOSIG
Conditions at: OIAA (ABADAN INTL AIRP, IR) observed 1251 UTC 10 August 2022
Temperature: 50.0°C (122°F)
Dewpoint: 0.0°C (32°F) [RH =  5%]
Pressure (altimeter): 29.29 inches Hg (992.0 mb)
Winds: from the NW (320 degrees) at 22 MPH (19 knots; 9.8 m/s)
Visibility: 5 miles ( 8 km)
Ceiling: at least 12,000 feet AGL
Clouds: sky clear below 12,000 feet AGL
Weather: no significant weather observed at this time

METAR text: OIAA 101200Z 31017KT 6000 NSC 51/01 Q0992
Conditions at: OIAA (ABADAN INTL AIRP, IR) observed 1200 UTC 10 August 2022
Temperature: 0.0°C (32°F)
Dewpoint: 1.0°C (34°F) [RH = 108%]
Pressure (altimeter): 29.29 inches Hg (992.0 mb)
Winds: from the NW (310 degrees) at 20 MPH (17 knots; 8.7 m/s)
Visibility: 4 miles ( 6 km)
Ceiling: at least 12,000 feet AGL
Clouds: sky clear below 12,000 feet AGL
Weather: no significant weather observed at this time

METAR text: OIAA 101151Z 31017KT 6000 NSC 51/01 Q0992 NOSIG
Conditions at: OIAA (ABADAN INTL AIRP, IR) observed 1151 UTC 10 August 2022
Temperature: 0.0°C (32°F)
Dewpoint: 1.0°C (34°F) [RH = 108%]
Pressure (altimeter): 29.29 inches Hg (992.0 mb)
Winds: from the NW (310 degrees) at 20 MPH (17 knots; 8.7 m/s)
Visibility: 4 miles ( 6 km)
Ceiling: at least 12,000 feet AGL
Clouds: sky clear below 12,000 feet AGL
Weather: no significant weather observed at this time

METAR text: OIAA 101100Z 33019KT 6000 NSC 50/00 Q0992
Conditions at: OIAA (ABADAN INTL AIRP, IR) observed 1100 UTC 10 August 2022
Temperature: 50.0°C (122°F)
Dewpoint: 0.0°C (32°F) [RH =  5%]
Pressure (altimeter): 29.29 inches Hg (992.0 mb)
Winds: from the NNW (330 degrees) at 22 MPH (19 knots; 9.8 m/s)
Visibility: 4 miles ( 6 km)
Ceiling: at least 12,000 feet AGL
Clouds: sky clear below 12,000 feet AGL
Weather: no significant weather observed at this time

METAR text: OIAA 101051Z 33019KT 6000 NSC 50/00 Q0992 NOSIG
Conditions at: OIAA (ABADAN INTL AIRP, IR) observed 1051 UTC 10 August 2022
Temperature: 50.0°C (122°F)
Dewpoint: 0.0°C (32°F) [RH =  5%]
Pressure (altimeter): 29.29 inches Hg (992.0 mb)
Winds: from the NNW (330 degrees) at 22 MPH (19 knots; 9.8 m/s)
Visibility: 4 miles ( 6 km)
Ceiling: at least 12,000 feet AGL
Clouds: sky clear below 12,000 feet AGL
Weather: no significant weather observed at this time

METAR text: OIAA 101000Z 33019KT 6000 NSC 49/02 Q0993
Conditions at: OIAA (ABADAN INTL AIRP, IR) observed 1000 UTC 10 August 2022
Temperature: 49.0°C (120°F)
Dewpoint: 2.0°C (36°F) [RH =  6%]
Pressure (altimeter): 29.32 inches Hg (993.0 mb)
Winds: from the NNW (330 degrees) at 22 MPH (19 knots; 9.8 m/s)
Visibility: 4 miles ( 6 km)
Ceiling: at least 12,000 feet AGL
Clouds: sky clear below 12,000 feet AGL
Weather: no significant weather observed at this time

METAR text: OIAA 100952Z 33019KT 6000 NSC 49/02 Q0993 NOSIG
Conditions at: OIAA (ABADAN INTL AIRP, IR) observed 0952 UTC 10 August 2022
Temperature: 49.0°C (120°F)
Dewpoint: 2.0°C (36°F) [RH =  6%]
Pressure (altimeter): 29.32 inches Hg (993.0 mb)
Winds: from the NNW (330 degrees) at 22 MPH (19 knots; 9.8 m/s)
Visibility: 4 miles ( 6 km)
Ceiling: at least 12,000 feet AGL
Clouds: sky clear below 12,000 feet AGL
Weather: no significant weather observed at this time

METAR text: OIAA 100900Z 35017KT 8000 NSC 49/11 Q0994
Conditions at: OIAA (ABADAN INTL AIRP, IR) observed 0900 UTC 10 August 2022
Temperature: 49.0°C (120°F)
Dewpoint: 11.0°C (52°F) [RH = 11%]
Pressure (altimeter): 29.35 inches Hg (994.0 mb)
Winds: from the N (350 degrees) at 20 MPH (17 knots; 8.7 m/s)
Visibility: 5 miles ( 8 km)
Ceiling: at least 12,000 feet AGL
Clouds: sky clear below 12,000 feet AGL
Weather: no significant weather observed at this time

METAR text: OIAA 100800Z 31017KT 7000 NSC 47/05 Q0994
Conditions at: OIAA (ABADAN INTL AIRP, IR) observed 0800 UTC 10 August 2022
Temperature: 47.0°C (117°F)
Dewpoint: 5.0°C (41°F) [RH =  8%]
Pressure (altimeter): 29.35 inches Hg (994.0 mb)
Winds: from the NW (310 degrees) at 20 MPH (17 knots; 8.7 m/s)
Visibility: 4 miles ( 7 km)
Ceiling: at least 12,000 feet AGL
Clouds: sky clear below 12,000 feet AGL
Weather: no significant weather observed at this time

METAR text: OIAA 100700Z 31017KT 7000 NSC 44/08 Q0994
Conditions at: OIAA (ABADAN INTL AIRP, IR) observed 0700 UTC 10 August 2022
Temperature: 44.0°C (111°F)
Dewpoint: 8.0°C (46°F) [RH = 12%]
Pressure (altimeter): 29.35 inches Hg (994.0 mb)
Winds: from the NW (310 degrees) at 20 MPH (17 knots; 8.7 m/s)
Visibility: 4 miles ( 7 km)
Ceiling: at least 12,000 feet AGL
Clouds: sky clear below 12,000 feet AGL
Weather: no significant weather observed at this time

METAR text: OIAA 100600Z 31018KT 7000 NSC 42/07 Q0993
Conditions at: OIAA (ABADAN INTL AIRP, IR) observed 0600 UTC 10 August 2022
Temperature: 42.0°C (108°F)
Dewpoint: 7.0°C (45°F) [RH = 12%]
Pressure (altimeter): 29.32 inches Hg (993.0 mb)
Winds: from the NW (310 degrees) at 21 MPH (18 knots; 9.3 m/s)
Visibility: 4 miles ( 7 km)
Ceiling: at least 12,000 feet AGL
Clouds: sky clear below 12,000 feet AGL
Weather: no significant weather observed at this time

METAR text: OIAA 100550Z 31018KT 7000 NSC 42/07 Q0993 NOSIG
Conditions at: OIAA (ABADAN INTL AIRP, IR) observed 0550 UTC 10 August 2022
Temperature: 42.0°C (108°F)
Dewpoint: 7.0°C (45°F) [RH = 12%]
Pressure (altimeter): 29.32 inches Hg (993.0 mb)
Winds: from the NW (310 degrees) at 21 MPH (18 knots; 9.3 m/s)
Visibility: 4 miles ( 7 km)
Ceiling: at least 12,000 feet AGL
Clouds: sky clear below 12,000 feet AGL
Weather: no significant weather observed at this time

METAR text: OIAA 100450Z 31016KT 7000 NSC 39/10 Q0994 NOSIG
Conditions at: OIAA (ABADAN INTL AIRP, IR) observed 0450 UTC 10 August 2022
Temperature: 39.0°C (102°F)
Dewpoint: 10.0°C (50°F) [RH = 18%]
Pressure (altimeter): 29.35 inches Hg (994.0 mb)
Winds: from the NW (310 degrees) at 18 MPH (16 knots; 8.2 m/s)
Visibility: 4 miles ( 7 km)
Ceiling: at least 12,000 feet AGL
Clouds: sky clear below 12,000 feet AGL
Weather: no significant weather observed at this time

METAR text: OIAA 100400Z 32019KT 7000 NSC 33/12 Q0994
Conditions at: OIAA (ABADAN INTL AIRP, IR) observed 0400 UTC 10 August 2022
Temperature: 33.0°C (91°F)
Dewpoint: 12.0°C (54°F) [RH = 28%]
Pressure (altimeter): 29.35 inches Hg (994.0 mb)
Winds: from the NW (320 degrees) at 22 MPH (19 knots; 9.8 m/s)
Visibility: 4 miles ( 7 km)
Ceiling: at least 12,000 feet AGL
Clouds: sky clear below 12,000 feet AGL
Weather: no significant weather observed at this time

METAR text: OIAA 100300Z 31012KT 7000 NSC 33/09 Q0994
Conditions at: OIAA (ABADAN INTL AIRP, IR) observed 0300 UTC 10 August 2022
Temperature: 33.0°C (91°F)
Dewpoint: 9.0°C (48°F) [RH = 23%]
Pressure (altimeter): 29.35 inches Hg (994.0 mb)
Winds: from the NW (310 degrees) at 14 MPH (12 knots; 6.2 m/s)
Visibility: 4 miles ( 7 km)
Ceiling: at least 12,000 feet AGL
Clouds: sky clear below 12,000 feet AGL
Weather: no significant weather observed at this time

METAR text: OIAA 100200Z 30010KT CAVOK 34/08 Q0994
Conditions at: OIAA (ABADAN INTL AIRP, IR) observed 0200 UTC 10 August 2022
Temperature: 34.0°C (93°F)
Dewpoint: 8.0°C (46°F) [RH = 20%]
Pressure (altimeter): 29.35 inches Hg (994.0 mb)
Winds: from the WNW (300 degrees) at 12 MPH (10 knots; 5.1 m/s)
Visibility: 6 or more miles (10+ km)
Ceiling: ceiling and visibility are OK
Clouds: unknown
Weather: no significant weather observed at this time

METAR text: OIAA 100100Z 30008KT CAVOK 35/09 Q0993
Conditions at: OIAA (ABADAN INTL AIRP, IR) observed 0100 UTC 10 August 2022
Temperature: 35.0°C (95°F)
Dewpoint: 9.0°C (48°F) [RH = 20%]
Pressure (altimeter): 29.32 inches Hg (993.0 mb)
Winds: from the WNW (300 degrees) at 9 MPH (8 knots; 4.1 m/s)
Visibility: 6 or more miles (10+ km)
Ceiling: ceiling and visibility are OK
Clouds: unknown
Weather: no significant weather observed at this time

METAR text: OIAA 100000Z 30014KT CAVOK 36/09 Q0993
Conditions at: OIAA (ABADAN INTL AIRP, IR) observed 0000 UTC 10 August 2022
Temperature: 36.0°C (97°F)
Dewpoint: 9.0°C (48°F) [RH = 19%]
Pressure (altimeter): 29.32 inches Hg (993.0 mb)
Winds: from the WNW (300 degrees) at 16 MPH (14 knots; 7.2 m/s)
Visibility: 6 or more miles (10+ km)
Ceiling: ceiling and visibility are OK
Clouds: unknown
Weather: no significant weather observed at this time

METAR text: OIAA 092300Z 31016KT CAVOK 36/10 Q0993
Conditions at: OIAA (ABADAN INTL AIRP, IR) observed 2300 UTC 09 August 2022
Temperature: 36.0°C (97°F)
Dewpoint: 10.0°C (50°F) [RH = 21%]
Pressure (altimeter): 29.32 inches Hg (993.0 mb)
Winds: from the NW (310 degrees) at 18 MPH (16 knots; 8.2 m/s)
Visibility: 6 or more miles (10+ km)
Ceiling: ceiling and visibility are OK
Clouds: unknown
Weather: no significant weather observed at this time

METAR text: OIAA 092200Z 31014KT CAVOK 37/11 Q0993
Conditions at: OIAA (ABADAN INTL AIRP, IR) observed 2200 UTC 09 August 2022
Temperature: 37.0°C (99°F)
Dewpoint: 11.0°C (52°F) [RH = 21%]
Pressure (altimeter): 29.32 inches Hg (993.0 mb)
Winds: from the NW (310 degrees) at 16 MPH (14 knots; 7.2 m/s)
Visibility: 6 or more miles (10+ km)
Ceiling: ceiling and visibility are OK
Clouds: unknown
Weather: no significant weather observed at this time

METAR text: OIAA 092100Z 30016KT 8000 NSC 37/11 Q0993
Conditions at: OIAA (ABADAN INTL AIRP, IR) observed 2100 UTC 09 August 2022
Temperature: 37.0°C (99°F)
Dewpoint: 11.0°C (52°F) [RH = 21%]
Pressure (altimeter): 29.32 inches Hg (993.0 mb)
Winds: from the WNW (300 degrees) at 18 MPH (16 knots; 8.2 m/s)
Visibility: 5 miles ( 8 km)
Ceiling: at least 12,000 feet AGL
Clouds: sky clear below 12,000 feet AGL
Weather: no significant weather observed at this time

METAR text: OIAA 092000Z 30012KT 5000 DU NSC 38/13 Q0994
Conditions at: OIAA (ABADAN INTL AIRP, IR) observed 2000 UTC 09 August 2022
Temperature: 38.0°C (100°F)
Dewpoint: 13.0°C (55°F) [RH = 23%]
Pressure (altimeter): 29.35 inches Hg (994.0 mb)
Winds: from the WNW (300 degrees) at 14 MPH (12 knots; 6.2 m/s)
Visibility: 3 miles ( 5 km)
Ceiling: at least 12,000 feet AGL
Clouds: sky clear below 12,000 feet AGL
Weather: DU  (widespread dust)

METAR text: OIAA 091900Z 30010KT 5000 DU NSC 38/12 Q0994
Conditions at: OIAA (ABADAN INTL AIRP, IR) observed 1900 UTC 09 August 2022
Temperature: 38.0°C (100°F)
Dewpoint: 12.0°C (54°F) [RH = 21%]
Pressure (altimeter): 29.35 inches Hg (994.0 mb)
Winds: from the WNW (300 degrees) at 12 MPH (10 knots; 5.1 m/s)
Visibility: 3 miles ( 5 km)
Ceiling: at least 12,000 feet AGL
Clouds: sky clear below 12,000 feet AGL
Weather: DU  (widespread dust)

METAR text: OIAA 091800Z 30010KT 5000 DU NSC 40/10 Q0994
Conditions at: OIAA (ABADAN INTL AIRP, IR) observed 1800 UTC 09 August 2022
Temperature: 40.0°C (104°F)
Dewpoint: 10.0°C (50°F) [RH = 17%]
Pressure (altimeter): 29.35 inches Hg (994.0 mb)
Winds: from the WNW (300 degrees) at 12 MPH (10 knots; 5.1 m/s)
Visibility: 3 miles ( 5 km)
Ceiling: at least 12,000 feet AGL
Clouds: sky clear below 12,000 feet AGL
Weather: DU  (widespread dust)

METAR text: OIAA 091700Z 30012KT 5000 DU NSC 42/06 Q0994
Conditions at: OIAA (ABADAN INTL AIRP, IR) observed 1700 UTC 09 August 2022
Temperature: 42.0°C (108°F)
Dewpoint: 6.0°C (43°F) [RH = 11%]
Pressure (altimeter): 29.35 inches Hg (994.0 mb)
Winds: from the WNW (300 degrees) at 14 MPH (12 knots; 6.2 m/s)
Visibility: 3 miles ( 5 km)
Ceiling: at least 12,000 feet AGL
Clouds: sky clear below 12,000 feet AGL
Weather: DU  (widespread dust)

METAR text: OIAA 091600Z 32014KT 5000 DU NSC 45/08 Q0993
Conditions at: OIAA (ABADAN INTL AIRP, IR) observed 1600 UTC 09 August 2022
Temperature: 45.0°C (113°F)
Dewpoint: 8.0°C (46°F) [RH = 11%]
Pressure (altimeter): 29.32 inches Hg (993.0 mb)
Winds: from the NW (320 degrees) at 16 MPH (14 knots; 7.2 m/s)
Visibility: 3 miles ( 5 km)
Ceiling: at least 12,000 feet AGL
Clouds: sky clear below 12,000 feet AGL
Weather: DU  (widespread dust)

METAR text: OIAA 091500Z 33014KT 5000 DU NSC 48/08 Q0992
Conditions at: OIAA (ABADAN INTL AIRP, IR) observed 1500 UTC 09 August 2022
Temperature: 48.0°C (118°F)
Dewpoint: 8.0°C (46°F) [RH = 10%]
Pressure (altimeter): 29.29 inches Hg (992.0 mb)
Winds: from the NNW (330 degrees) at 16 MPH (14 knots; 7.2 m/s)
Visibility: 3 miles ( 5 km)
Ceiling: at least 12,000 feet AGL
Clouds: sky clear below 12,000 feet AGL
Weather: DU  (widespread dust)

METAR text: OIAA 091400Z 34017KT CAVOK 50/08 Q0992
Conditions at: OIAA (ABADAN INTL AIRP, IR) observed 1400 UTC 09 August 2022
Temperature: 50.0°C (122°F)
Dewpoint: 8.0°C (46°F) [RH =  9%]
Pressure (altimeter): 29.29 inches Hg (992.0 mb)
Winds: from the NNW (340 degrees) at 20 MPH (17 knots; 8.7 m/s)
Visibility: 6 or more miles (10+ km)
Ceiling: ceiling and visibility are OK
Clouds: unknown
Weather: no significant weather observed at this time

METAR text: OIAA 091300Z 36012KT CAVOK 51/07 Q0993
Conditions at: OIAA (ABADAN INTL AIRP, IR) observed 1300 UTC 09 August 2022
Temperature: 0.0°C (32°F)
Dewpoint: 7.0°C (45°F) [RH = 164%]
Pressure (altimeter): 29.32 inches Hg (993.0 mb)
Winds: from the N (360 degrees) at 14 MPH (12 knots; 6.2 m/s)
Visibility: 6 or more miles (10+ km)
Ceiling: ceiling and visibility are OK
Clouds: unknown
Weather: no significant weather observed at this time

METAR text: OIAA 091200Z 35016KT CAVOK 51/05 Q0993
Conditions at: OIAA (ABADAN INTL AIRP, IR) observed 1200 UTC 09 August 2022
Temperature: 0.0°C (32°F)
Dewpoint: 5.0°C (41°F) [RH = 143%]
Pressure (altimeter): 29.32 inches Hg (993.0 mb)
Winds: from the N (350 degrees) at 18 MPH (16 knots; 8.2 m/s)
Visibility: 6 or more miles (10+ km)
Ceiling: ceiling and visibility are OK
Clouds: unknown
Weather: no significant weather observed at this time

METAR text: OIAA 091100Z 33017KT 6000 NSC 51/03 Q0993
Conditions at: OIAA (ABADAN INTL AIRP, IR) observed 1100 UTC 09 August 2022
Temperature: 0.0°C (32°F)
Dewpoint: 3.0°C (37°F) [RH = 124%]
Pressure (altimeter): 29.32 inches Hg (993.0 mb)
Winds: from the NNW (330 degrees) at 20 MPH (17 knots; 8.7 m/s)
Visibility: 4 miles ( 6 km)
Ceiling: at least 12,000 feet AGL
Clouds: sky clear below 12,000 feet AGL
Weather: no significant weather observed at this time

METAR text: OIAA 091000Z 34017KT 6000 NSC 50/03 Q0994 TEMPO 5000 DU
Conditions at: OIAA (ABADAN INTL AIRP, IR) observed 1000 UTC 09 August 2022
Temperature: 50.0°C (122°F)
Dewpoint: 3.0°C (37°F) [RH =  6%]
Pressure (altimeter): 29.35 inches Hg (994.0 mb)
Winds: from the NNW (340 degrees) at 20 MPH (17 knots; 8.7 m/s)
Visibility: 4 miles ( 6 km)
Ceiling: at least 12,000 feet AGL
Clouds: sky clear below 12,000 feet AGL
Weather: no significant weather observed at this time

METAR text: OIAA 090900Z 35019KT 4500 DU NSC 49/04 Q0995 TEMPO 1500 DU
Conditions at: OIAA (ABADAN INTL AIRP, IR) observed 0900 UTC 09 August 2022
Temperature: 49.0°C (120°F)
Dewpoint: 4.0°C (39°F) [RH =  7%]
Pressure (altimeter): 29.38 inches Hg (995.0 mb)
Winds: from the N (350 degrees) at 22 MPH (19 knots; 9.8 m/s)
Visibility: 2.80 miles (4.51 km)
Ceiling: at least 12,000 feet AGL
Clouds: sky clear below 12,000 feet AGL
Weather: DU  (widespread dust)

METAR text: OIAA 090800Z 32016KT 3000 DU NSC 48/05 Q0995 TEMPO 3000 DU
Conditions at: OIAA (ABADAN INTL AIRP, IR) observed 0800 UTC 09 August 2022
Temperature: 48.0°C (118°F)
Dewpoint: 5.0°C (41°F) [RH =  8%]
Pressure (altimeter): 29.38 inches Hg (995.0 mb)
Winds: from the NW (320 degrees) at 18 MPH (16 knots; 8.2 m/s)
Visibility: 1.86 miles (2.99 km)
Ceiling: at least 12,000 feet AGL
Clouds: sky clear below 12,000 feet AGL
Weather: DU  (widespread dust)

METAR text: OIAA 090700Z 33017KT 4000 DU NSC 46/07 Q0995 TEMPO 3000 DU
Conditions at: OIAA (ABADAN INTL AIRP, IR) observed 0700 UTC 09 August 2022
Temperature: 46.0°C (115°F)
Dewpoint: 7.0°C (45°F) [RH = 10%]
Pressure (altimeter): 29.38 inches Hg (995.0 mb)
Winds: from the NNW (330 degrees) at 20 MPH (17 knots; 8.7 m/s)
Visibility: 2.49 miles (4.01 km)
Ceiling: at least 12,000 feet AGL
Clouds: sky clear below 12,000 feet AGL
Weather: DU  (widespread dust)

METAR text: OIAA 090600Z 33019KT CAVOK 42/04 Q0995
Conditions at: OIAA (ABADAN INTL AIRP, IR) observed 0600 UTC 09 August 2022
Temperature: 42.0°C (108°F)
Dewpoint: 4.0°C (39°F) [RH = 10%]
Pressure (altimeter): 29.38 inches Hg (995.0 mb)
Winds: from the NNW (330 degrees) at 22 MPH (19 knots; 9.8 m/s)
Visibility: 6 or more miles (10+ km)
Ceiling: ceiling and visibility are OK
Clouds: unknown
Weather: no significant weather observed at this time

METAR text: OIAA 090500Z 34012KT CAVOK 39/05 Q0995
Conditions at: OIAA (ABADAN INTL AIRP, IR) observed 0500 UTC 09 August 2022
Temperature: 39.0°C (102°F)
Dewpoint: 5.0°C (41°F) [RH = 12%]
Pressure (altimeter): 29.38 inches Hg (995.0 mb)
Winds: from the NNW (340 degrees) at 14 MPH (12 knots; 6.2 m/s)
Visibility: 6 or more miles (10+ km)
Ceiling: ceiling and visibility are OK
Clouds: unknown
Weather: no significant weather observed at this time

METAR text: OIAA 090400Z 30012KT CAVOK 36/11 Q0995
Conditions at: OIAA (ABADAN INTL AIRP, IR) observed 0400 UTC 09 August 2022
Temperature: 36.0°C (97°F)
Dewpoint: 11.0°C (52°F) [RH = 22%]
Pressure (altimeter): 29.38 inches Hg (995.0 mb)
Winds: from the WNW (300 degrees) at 14 MPH (12 knots; 6.2 m/s)
Visibility: 6 or more miles (10+ km)
Ceiling: ceiling and visibility are OK
Clouds: unknown
Weather: no significant weather observed at this time

METAR text: OIAA 090300Z 30014KT CAVOK 34/11 Q0995
Conditions at: OIAA (ABADAN INTL AIRP, IR) observed 0300 UTC 09 August 2022
Temperature: 34.0°C (93°F)
Dewpoint: 11.0°C (52°F) [RH = 25%]
Pressure (altimeter): 29.38 inches Hg (995.0 mb)
Winds: from the WNW (300 degrees) at 16 MPH (14 knots; 7.2 m/s)
Visibility: 6 or more miles (10+ km)
Ceiling: ceiling and visibility are OK
Clouds: unknown
Weather: no significant weather observed at this time

Forecast for: OIAA (ABADAN INTL AIRP, IR)
Text: TAF OIAA 101130Z 1012/1118 32012KT 6000 NSC
Forecast period: 1200 UTC 10 August 2022 to 1800 UTC 11 August 2022
Forecast type: FROM: standard forecast or significant change
Winds: from the NW (320 degrees) at 14 MPH (12 knots; 6.2 m/s)
Visibility: 4 miles (6 km)
Ceiling: unknown
Clouds: missing
Weather: no significant weather forecast for this period
Text: TEMPO 1012/1016 32022KT 3000 SA NSC
Forecast period: 1200 to 1600 UTC 10 August 2022
Forecast type: TEMPORARY: The following changes expected for less than half the time period
Winds: from the NW (320 degrees) at 25 MPH (22 knots; 11.3 m/s)
Visibility: 1.86 miles (2.99 km)
Ceiling: unknown
Clouds: missing
Weather: SA  (sand)
Text: TEMPO 1021/1024 32020KT 3000 SA DU NSC
Forecast period: 2100 UTC 10 August 2022 to 0000 UTC 11 August 2022
Forecast type: TEMPORARY: The following changes expected for less than half the time period
Winds: from the NW (320 degrees) at 23 MPH (20 knots; 10.3 m/s)
Visibility: 1.86 miles (2.99 km)
Ceiling: unknown
Clouds: missing
Weather: SA DU  (sand, widespread dust)
Text: TEMPO 1101/1106 3000 HZ/DU NSC
Forecast period: 0100 to 0600 UTC 11 August 2022
Forecast type: TEMPORARY: The following changes expected for less than half the time period
Visibility: 1.86 miles (2.99 km)
Ceiling: unknown
Clouds: missing
Weather: DU HZ  (widespread dust, haze)